Reasnor, IA (50232)

11:37 AM CST on February 11, 2016 (GMT -0600)
Reasnor, Iowa | | Change Station
CLOSE
Current Station
Personal Weather Station
Location: Reasnor, IA
Elevation: 892 ft
Nearby Weather Stations

Elev 892 ft 41.56 °N, 93.01 °W | Updated 29 seconds ago

Clear
Clear
16.5 °F
Feels Like 16 °F
N
1.3
Wind Variable Wind from South
Gusts 2.5 mph

Today
High -- | Low -- °F
--% Chance of Precip.
Yesterday
High -- | Low -- °F
Precip. -- in
Pressure 30.35 in
Visibility 10.0 miles
Clouds Clear
Windchill 16 °F
Dew Point -20 °F
Humidity 18%
Rainfall 0.00 in
Snow Depth Not available.
7:13 AM 5:40 PM
Waxing Crescent, 13% visible
METAR KTNU 111715Z AUTO 15004KT 10SM CLR M11/M16 A3035 RMK AO2
Pressure 30.35 in
Visibility 10.0 miles
Clouds Clear
Windchill 16 °F
Dew Point -20 °F
Humidity 18%
Rainfall 0.00 in
Snow Depth Not available.
7:13 AM 5:40 PM
Waxing Crescent, 13% visible
METAR KTNU 111715Z AUTO 15004KT 10SM CLR M11/M16 A3035 RMK AO2

10-Day Weather Forecast

Almanac

Astronomy

Feb. 11, 2016 Rise Set
Actual Time
Civil Twilight
Nautical Twilight
Astronomical Twilight
Moon
Length of Visible Light
Length of Day
Tomorrow will be .
, % of the Moon is Illuminated

Today's Extremes

State Highs State Lows

Community

WunderPhotos

Upload Photos

1,892,109 photos uploaded!

WunderBlog® & News

Nearby

Air Quality

  Air Quality AQ Index Pollutant
Not available.

Snow Depth

Station Depth Elevation

Earthquake Activity

City Distance Mag. Time & Date
Minimum magnitude displayed is 2.5.

Coastal Water Temperatures

Place Temperature

Stations

Nearby Weather Stations

Station Location Temp. Windchill Dew Point Humidity Wind Precip. Elev Updated Type
                   

Watches & Warnings

There are currently no watches in effect.